createdAt,value
2018-12-20T00:00:11.725Z,13.67
2018-12-20T00:02:41.727Z,13.43
2018-12-20T00:05:11.605Z,14.17
2018-12-20T00:07:41.571Z,13.97
2018-12-20T00:10:11.511Z,14.40
2018-12-20T00:12:41.400Z,14.13
2018-12-20T00:15:11.399Z,14.70
2018-12-20T00:17:45.298Z,14.13
2018-12-20T00:20:15.196Z,14.70
2018-12-20T00:22:45.337Z,13.40
2018-12-20T00:25:15.376Z,14.27
2018-12-20T00:27:45.457Z,14.90
2018-12-20T00:30:15.461Z,15.07
2018-12-20T00:32:46.157Z,14.33
2018-12-20T00:35:16.159Z,14.80
2018-12-20T00:37:47.591Z,13.47
2018-12-20T00:40:17.693Z,13.87
2018-12-20T00:42:47.661Z,13.87
2018-12-20T00:45:17.759Z,13.83
2018-12-20T00:47:47.569Z,14.33
2018-12-20T00:50:17.494Z,14.17
2018-12-20T00:52:47.463Z,14.50
2018-12-20T00:55:17.388Z,13.93
2018-12-20T00:57:47.711Z,14.40
2018-12-20T01:00:19.555Z,14.77
2018-12-20T01:02:55.192Z,13.47
2018-12-20T01:05:21.443Z,14.37
2018-12-20T01:07:51.567Z,13.47
2018-12-20T01:10:21.662Z,13.80
2018-12-20T01:12:51.573Z,14.23
2018-12-20T01:15:21.468Z,13.83
2018-12-20T01:17:51.602Z,13.73
2018-12-20T01:20:21.592Z,14.40
2018-12-20T01:22:51.482Z,14.37
2018-12-20T01:25:21.503Z,13.47
2018-12-20T01:27:51.518Z,14.77
2018-12-20T01:30:21.323Z,13.43
2018-12-20T01:32:51.216Z,13.80
2018-12-20T01:35:21.195Z,13.40
2018-12-20T01:37:51.220Z,13.77
2018-12-20T01:40:21.354Z,13.47
2018-12-20T01:42:51.399Z,13.97
2018-12-20T01:45:21.408Z,13.07
2018-12-20T01:47:51.482Z,14.10
2018-12-20T01:50:21.473Z,13.60
2018-12-20T01:52:51.520Z,13.57
2018-12-20T01:55:21.635Z,13.73
2018-12-20T01:57:51.702Z,13.00
2018-12-20T02:00:21.951Z,13.80
2018-12-20T02:02:52.055Z,14.13
2018-12-20T02:05:21.884Z,13.87
2018-12-20T02:07:52.132Z,14.27
2018-12-20T02:10:22.341Z,13.20
2018-12-20T02:12:52.363Z,12.30
2018-12-20T02:15:22.329Z,13.43
2018-12-20T02:17:52.445Z,13.50
2018-12-20T02:20:22.616Z,13.13
2018-12-20T02:22:52.588Z,12.83
2018-12-20T02:25:22.692Z,13.20
2018-12-20T02:27:52.860Z,13.60
2018-12-20T02:30:22.835Z,12.93
2018-12-20T02:32:53.022Z,12.87
2018-12-20T02:35:23.134Z,13.30
2018-12-20T02:37:53.158Z,13.23
2018-12-20T02:40:23.120Z,13.53
2018-12-20T02:42:53.165Z,13.07
2018-12-20T02:45:23.210Z,12.80
2018-12-20T02:47:53.280Z,13.30
2018-12-20T02:50:23.283Z,13.13
2018-12-20T02:52:53.333Z,13.07
2018-12-20T02:55:23.383Z,12.87
2018-12-20T02:57:53.399Z,13.47
2018-12-20T03:00:23.625Z,12.70
2018-12-20T03:02:53.705Z,12.60
2018-12-20T03:05:23.798Z,13.37
2018-12-20T03:07:53.982Z,13.23
2018-12-20T03:10:23.938Z,13.33
2018-12-20T03:12:54.031Z,12.80
2018-12-20T03:15:24.021Z,13.13
2018-12-20T03:17:54.145Z,12.83
2018-12-20T03:20:24.347Z,12.23
2018-12-20T03:22:54.590Z,12.43
2018-12-20T03:25:24.936Z,12.80
2018-12-20T03:27:54.936Z,12.77
2018-12-20T03:30:25.164Z,13.40
2018-12-20T03:32:55.537Z,12.70
2018-12-20T03:35:25.582Z,13.10
2018-12-20T03:37:55.481Z,12.77
2018-12-20T03:40:25.403Z,13.10
2018-12-20T03:42:55.484Z,11.93
2018-12-20T03:45:29.082Z,12.40
2018-12-20T03:47:58.138Z,12.80
2018-12-20T03:50:28.197Z,12.27
2018-12-20T03:52:58.203Z,13.03
2018-12-20T03:55:28.260Z,12.00
2018-12-20T03:57:58.491Z,12.13
2018-12-20T04:00:28.447Z,13.23
2018-12-20T04:02:58.733Z,12.20
2018-12-20T04:05:28.719Z,11.97
2018-12-20T04:07:58.902Z,11.77
2018-12-20T04:10:29.055Z,11.53
2018-12-20T04:12:59.064Z,11.80
2018-12-20T04:15:37.598Z,12.93
2018-12-20T04:18:00.950Z,11.47
2018-12-20T04:20:30.907Z,12.03
2018-12-20T04:23:00.855Z,11.83
2018-12-20T04:25:30.824Z,11.53
2018-12-20T04:28:00.803Z,11.47
2018-12-20T04:30:30.828Z,11.03
2018-12-20T04:33:01.000Z,11.00
2018-12-20T04:35:31.062Z,11.40
2018-12-20T04:38:01.104Z,11.53
2018-12-20T04:40:31.040Z,10.57
2018-12-20T04:43:01.175Z,10.43
2018-12-20T04:45:31.112Z,11.00
2018-12-20T04:48:01.318Z,10.53
2018-12-20T04:50:31.259Z,10.60
2018-12-20T04:53:01.537Z,10.43
2018-12-20T04:55:31.586Z,10.37
2018-12-20T04:58:02.811Z,11.00
2018-12-20T05:00:33.100Z,10.10
2018-12-20T05:03:03.214Z,10.10
2018-12-20T05:05:33.435Z,9.87
2018-12-20T05:08:03.584Z,10.57
2018-12-20T05:10:33.858Z,9.50
2018-12-20T05:13:03.883Z,9.90
2018-12-20T05:15:36.721Z,9.83
2018-12-20T05:18:06.757Z,9.53
2018-12-20T05:20:36.888Z,10.00
2018-12-20T05:25:47.481Z,9.37
2018-12-20T05:28:17.826Z,9.73
2018-12-20T05:30:47.975Z,10.43
2018-12-20T05:33:17.932Z,10.27
2018-12-20T05:35:48.088Z,10.20
2018-12-20T05:38:18.114Z,10.47
2018-12-20T05:40:48.212Z,10.77
2018-12-20T05:43:18.295Z,9.60
2018-12-20T05:45:48.283Z,9.87
2018-12-20T05:48:18.596Z,9.63
2018-12-20T05:50:48.582Z,9.60
2018-12-20T05:53:18.470Z,10.13
2018-12-20T05:55:48.488Z,9.47
2018-12-20T05:58:18.481Z,9.70
2018-12-20T06:00:48.455Z,9.90
2018-12-20T06:03:18.392Z,10.13
2018-12-20T06:05:48.531Z,10.20
2018-12-20T06:08:18.458Z,9.47
2018-12-20T06:10:48.472Z,9.77
2018-12-20T06:13:18.541Z,9.83
2018-12-20T06:15:48.548Z,9.93
2018-12-20T06:18:18.512Z,10.20
2018-12-20T06:20:48.500Z,9.27
2018-12-20T06:23:19.115Z,9.53
2018-12-20T06:25:49.224Z,9.63
2018-12-20T06:28:19.361Z,10.07
2018-12-20T06:30:49.485Z,9.57
2018-12-20T06:33:19.566Z,9.53
2018-12-20T06:35:49.671Z,9.17
2018-12-20T06:38:19.823Z,9.80
2018-12-20T06:40:49.877Z,9.57
2018-12-20T06:43:19.925Z,9.30
2018-12-20T06:45:50.252Z,8.73
2018-12-20T06:48:20.304Z,9.60
2018-12-20T06:50:50.318Z,9.50
2018-12-20T06:53:20.423Z,9.10
2018-12-20T06:55:50.453Z,9.17
2018-12-20T06:58:20.652Z,9.80
2018-12-20T07:00:50.781Z,8.83
2018-12-20T07:03:20.770Z,9.40
2018-12-20T07:05:50.812Z,8.57
2018-12-20T07:08:20.775Z,8.90
2018-12-20T07:10:50.984Z,9.30
2018-12-20T07:13:20.945Z,10.00
2018-12-20T07:15:51.284Z,9.03
2018-12-20T07:18:21.573Z,9.30
2018-12-20T07:20:51.605Z,8.87
2018-12-20T07:23:21.641Z,9.47
2018-12-20T07:25:51.651Z,9.33
2018-12-20T07:28:21.586Z,9.20
2018-12-20T07:30:51.776Z,8.87
2018-12-20T07:33:21.910Z,8.73
2018-12-20T07:35:52.016Z,9.40
2018-12-20T07:38:22.015Z,8.67
2018-12-20T07:40:52.037Z,8.97
2018-12-20T07:43:22.256Z,9.17
2018-12-20T07:45:52.296Z,9.20
2018-12-20T07:48:22.426Z,9.13
2018-12-20T07:50:52.544Z,8.83
2018-12-20T07:53:22.555Z,9.03
2018-12-20T07:55:52.559Z,9.40
2018-12-20T07:58:22.783Z,9.00
2018-12-20T08:00:52.792Z,8.47
2018-12-20T08:03:22.854Z,9.07
2018-12-20T08:05:52.849Z,9.43
2018-12-20T08:08:23.140Z,9.27
2018-12-20T08:10:53.178Z,8.43
2018-12-20T08:13:23.245Z,8.90
2018-12-20T08:15:53.203Z,9.00
2018-12-20T08:18:23.450Z,9.03
2018-12-20T08:20:53.777Z,8.90
2018-12-20T08:23:23.746Z,8.83
2018-12-20T08:25:53.887Z,8.80
2018-12-20T08:28:23.981Z,9.17
2018-12-20T08:30:54.120Z,9.47
2018-12-20T08:33:24.345Z,8.70
2018-12-20T08:35:54.642Z,9.40
2018-12-20T08:38:24.662Z,9.07
2018-12-20T08:40:54.568Z,8.83
2018-12-20T08:43:24.540Z,9.60
2018-12-20T08:45:54.524Z,9.17
2018-12-20T08:48:24.507Z,9.10
2018-12-20T08:50:54.467Z,8.97
2018-12-20T08:53:24.658Z,9.33
2018-12-20T08:55:54.586Z,8.97
2018-12-20T08:58:24.725Z,9.47
2018-12-20T09:00:54.625Z,9.60
2018-12-20T09:03:24.915Z,9.43
2018-12-20T09:05:54.818Z,9.30
2018-12-20T09:08:25.513Z,9.43
2018-12-20T09:10:55.441Z,9.47
2018-12-20T09:13:25.444Z,8.83
2018-12-20T09:15:55.409Z,9.27
2018-12-20T09:18:25.344Z,9.83
2018-12-20T09:20:55.750Z,9.70
2018-12-20T09:23:26.092Z,9.67
2018-12-20T09:25:56.025Z,9.40
2018-12-20T09:28:26.083Z,9.47
2018-12-20T09:30:56.098Z,9.63
2018-12-20T09:33:26.023Z,10.30
2018-12-20T09:35:56.071Z,11.93
2018-12-20T09:38:26.042Z,10.97
2018-12-20T09:40:56.006Z,10.80
2018-12-20T09:43:27.655Z,10.80
2018-12-20T09:45:57.632Z,10.43
2018-12-20T09:48:27.574Z,10.07
2018-12-20T09:50:57.583Z,10.00
2018-12-20T09:53:27.463Z,10.30
2018-12-20T09:55:57.482Z,11.00
2018-12-20T09:58:27.474Z,10.77
2018-12-20T10:00:57.737Z,9.87
2018-12-20T10:03:27.664Z,10.27
2018-12-20T10:05:57.714Z,10.23
2018-12-20T10:08:27.684Z,10.60
2018-12-20T10:10:58.188Z,10.23
2018-12-20T10:13:28.155Z,10.80
2018-12-20T10:15:58.090Z,10.07
2018-12-20T10:18:28.096Z,9.93
2018-12-20T10:20:58.033Z,9.90
2018-12-20T10:23:28.040Z,10.20
2018-12-20T10:25:58.007Z,9.97
2018-12-20T10:28:28.006Z,9.90
2018-12-20T10:30:57.964Z,10.70
2018-12-20T10:33:27.954Z,10.37
2018-12-20T10:35:57.924Z,9.93
2018-12-20T10:38:27.876Z,10.43
2018-12-20T10:40:57.864Z,10.57
2018-12-20T10:43:27.960Z,10.10
2018-12-20T10:45:58.089Z,10.73
2018-12-20T10:48:28.064Z,10.93
2018-12-20T10:50:58.055Z,10.43
2018-12-20T10:53:27.999Z,11.30
2018-12-20T10:55:58.004Z,11.20
2018-12-20T10:58:28.004Z,11.83
2018-12-20T11:01:01.904Z,11.80
2018-12-20T11:03:35.890Z,11.53
2018-12-20T11:06:10.504Z,11.60
2018-12-20T11:08:44.524Z,11.57
2018-12-20T11:11:18.415Z,11.93
2018-12-20T11:13:48.415Z,12.07
2018-12-20T11:16:18.515Z,12.47
2018-12-20T11:18:48.466Z,12.50
2018-12-20T11:21:18.472Z,12.60
2018-12-20T11:23:48.595Z,12.50
2018-12-20T11:26:18.554Z,12.07
2018-12-20T11:28:48.526Z,11.90
2018-12-20T11:31:18.515Z,11.97
2018-12-20T11:33:48.575Z,11.73
2018-12-20T11:36:18.555Z,12.07
2018-12-20T11:38:48.605Z,12.13
2018-12-20T11:41:18.606Z,12.00
2018-12-20T11:43:48.585Z,11.83
2018-12-20T11:46:18.565Z,11.87
2018-12-20T11:48:48.535Z,10.93
2018-12-20T11:51:18.573Z,12.20
2018-12-20T11:53:48.554Z,12.20
2018-12-20T11:56:18.522Z,12.20
2018-12-20T11:58:48.574Z,12.03
2018-12-20T12:01:18.495Z,12.13
2018-12-20T12:03:57.216Z,12.47
2018-12-20T12:06:20.781Z,12.50
2018-12-20T12:08:50.823Z,12.20
2018-12-20T12:11:20.700Z,11.67
2018-12-20T12:13:50.665Z,11.97
2018-12-20T12:16:20.587Z,11.83
2018-12-20T12:18:50.776Z,11.57
2018-12-20T12:21:20.695Z,12.33
2018-12-20T12:23:50.715Z,12.50
2018-12-20T12:26:20.610Z,11.73
2018-12-20T12:28:50.631Z,12.43
2018-12-20T12:31:20.586Z,12.67
2018-12-20T12:33:50.497Z,13.03
2018-12-20T12:36:20.473Z,12.77
2018-12-20T12:38:50.567Z,12.97
2018-12-20T12:41:20.508Z,12.33
2018-12-20T12:43:50.994Z,12.53
2018-12-20T12:46:21.277Z,13.40
2018-12-20T12:48:51.140Z,13.20
2018-12-20T12:51:21.178Z,12.13
2018-12-20T12:53:51.094Z,12.90
2018-12-20T12:56:21.138Z,12.90
2018-12-20T12:58:51.099Z,13.30
2018-12-20T13:01:21.139Z,13.17
2018-12-20T13:03:51.083Z,13.47
2018-12-20T13:06:21.090Z,13.73
2018-12-20T13:08:51.292Z,12.97
2018-12-20T13:11:21.375Z,13.50
2018-12-20T13:13:51.431Z,12.90
2018-12-20T13:16:21.372Z,13.43
2018-12-20T13:18:51.304Z,14.40
2018-12-20T13:21:21.306Z,14.10
2018-12-20T13:23:51.342Z,14.50
2018-12-20T13:26:21.399Z,14.03
2018-12-20T13:28:51.366Z,14.70
2018-12-20T13:31:21.424Z,13.97
2018-12-20T13:33:51.437Z,13.97
2018-12-20T13:36:21.374Z,14.20
2018-12-20T13:38:51.455Z,13.90
2018-12-20T13:41:21.398Z,14.40
2018-12-20T13:43:51.376Z,15.37
2018-12-20T13:46:21.333Z,15.67
2018-12-20T13:48:51.368Z,14.33
2018-12-20T13:51:21.284Z,15.13
2018-12-20T13:53:51.306Z,14.93
2018-12-20T13:56:21.324Z,16.43
2018-12-20T13:58:51.283Z,15.93
2018-12-20T14:01:21.235Z,15.43
2018-12-20T14:03:51.163Z,15.53
2018-12-20T14:06:21.184Z,15.07
2018-12-20T14:08:51.174Z,16.60
2018-12-20T14:11:21.305Z,16.27
2018-12-20T14:13:51.365Z,17.57
2018-12-20T14:16:21.288Z,16.77
2018-12-20T14:18:51.203Z,17.50
2018-12-20T14:21:21.168Z,16.30
2018-12-20T14:23:51.140Z,16.20
2018-12-20T14:26:21.167Z,16.73
2018-12-20T14:28:51.097Z,16.07
2018-12-20T14:31:20.989Z,17.27
2018-12-20T14:33:50.992Z,17.27
2018-12-20T14:36:21.001Z,16.23
2018-12-20T14:38:50.940Z,17.10
2018-12-20T14:41:20.930Z,17.73
2018-12-20T14:43:50.929Z,16.47
2018-12-20T14:46:20.889Z,18.03
2018-12-20T14:48:50.982Z,18.27
2018-12-20T14:51:21.023Z,19.33
2018-12-20T14:53:51.008Z,19.23
2018-12-20T14:56:20.953Z,18.53
2018-12-20T14:58:50.929Z,18.10
2018-12-20T15:01:21.253Z,19.10
2018-12-20T15:03:51.171Z,20.00
2018-12-20T15:06:21.086Z,21.63
2018-12-20T15:08:51.210Z,33.37
2018-12-20T15:11:21.154Z,48.47
2018-12-20T15:13:51.648Z,55.87
2018-12-20T15:16:21.787Z,59.67
2018-12-20T15:18:51.806Z,59.27
2018-12-20T15:21:21.994Z,56.63
2018-12-20T15:23:51.956Z,55.83
2018-12-20T15:26:23.476Z,52.37
2018-12-20T15:28:53.465Z,51.90
2018-12-20T15:31:23.615Z,50.20
2018-12-20T15:33:53.615Z,49.93
2018-12-20T15:36:23.631Z,46.63
2018-12-20T15:38:53.579Z,46.97
2018-12-20T15:41:23.556Z,43.10
2018-12-20T15:43:53.639Z,42.33
2018-12-20T15:46:23.590Z,41.57
2018-12-20T15:48:57.498Z,42.43
2018-12-20T15:51:27.509Z,40.37
2018-12-20T15:53:57.884Z,40.97
2018-12-20T15:56:27.985Z,39.40
2018-12-20T15:58:58.038Z,39.07
2018-12-20T16:01:28.182Z,39.40
2018-12-20T16:03:58.201Z,39.00
2018-12-20T16:06:28.107Z,37.67
2018-12-20T16:08:58.056Z,37.97
2018-12-20T16:11:28.825Z,37.97
2018-12-20T16:13:58.845Z,36.37
2018-12-20T16:16:28.886Z,37.43
2018-12-20T16:19:04.924Z,37.07
2018-12-20T16:21:30.788Z,36.43
2018-12-20T16:24:00.861Z,36.13
2018-12-20T16:26:30.916Z,37.43
2018-12-20T16:29:00.935Z,35.77
2018-12-20T16:31:31.123Z,36.50
2018-12-20T16:34:01.070Z,35.63
2018-12-20T16:36:31.054Z,35.23
2018-12-20T16:39:01.020Z,34.77
2018-12-20T16:41:31.090Z,35.53
2018-12-20T16:44:01.164Z,34.53
2018-12-20T16:46:31.053Z,35.10
2018-12-20T16:49:01.171Z,34.67
2018-12-20T16:51:31.151Z,34.20
2018-12-20T16:54:01.095Z,35.40
2018-12-20T16:56:30.988Z,33.53
2018-12-20T16:59:00.991Z,33.90
2018-12-20T17:01:31.311Z,34.50
2018-12-20T17:04:01.246Z,33.00
2018-12-20T17:06:31.264Z,34.43
2018-12-20T17:09:01.362Z,33.73
2018-12-20T17:11:31.378Z,32.93
2018-12-20T17:14:01.368Z,32.90
2018-12-20T17:16:31.359Z,33.10
2018-12-20T17:19:01.313Z,33.27
2018-12-20T17:21:31.408Z,31.57
2018-12-20T17:24:01.305Z,32.27
2018-12-20T17:26:31.368Z,31.00
2018-12-20T17:29:01.335Z,32.17
2018-12-20T17:31:31.488Z,31.93
2018-12-20T17:34:01.869Z,31.43
2018-12-20T17:36:31.972Z,30.03
2018-12-20T17:39:01.873Z,31.73
2018-12-20T17:41:31.834Z,29.63
2018-12-20T17:44:01.815Z,30.13
2018-12-20T17:46:31.756Z,29.67
2018-12-20T17:49:01.881Z,30.87
2018-12-20T17:51:31.930Z,30.40
2018-12-20T17:54:01.941Z,30.83
2018-12-20T17:56:33.817Z,30.23
2018-12-20T17:59:03.935Z,29.47
2018-12-20T18:01:33.928Z,29.67
2018-12-20T18:04:04.051Z,30.20
2018-12-20T18:06:34.038Z,29.93
2018-12-20T18:09:05.745Z,30.13
2018-12-20T18:14:24.290Z,28.20
2018-12-20T18:16:54.398Z,29.00
2018-12-20T18:19:24.445Z,28.57
2018-12-20T18:21:54.428Z,29.80
2018-12-20T18:24:24.422Z,29.03
2018-12-20T18:26:54.475Z,28.63
2018-12-20T18:29:24.493Z,28.40
2018-12-20T18:31:57.559Z,28.37
2018-12-20T18:34:27.886Z,26.63
2018-12-20T18:36:57.975Z,28.17
2018-12-20T18:39:27.982Z,27.40
2018-12-20T18:41:58.034Z,27.40
2018-12-20T18:44:28.083Z,25.50
2018-12-20T18:46:59.134Z,27.37
2018-12-20T18:49:29.852Z,28.43
2018-12-20T18:52:04.141Z,27.23
2018-12-20T18:54:34.109Z,28.17
2018-12-20T18:57:04.254Z,26.73
2018-12-20T18:59:34.369Z,26.67
2018-12-20T19:02:04.648Z,27.27
2018-12-20T19:04:35.728Z,26.57
2018-12-20T19:07:05.763Z,27.00
2018-12-20T19:09:35.789Z,26.03
2018-12-20T19:15:21.684Z,41.67
2018-12-20T19:17:51.457Z,44.83
2018-12-20T19:20:24.326Z,46.83
2018-12-20T19:22:54.083Z,48.47
2018-12-20T19:28:04.771Z,25.33
2018-12-20T19:30:34.757Z,24.43
2018-12-20T19:33:05.060Z,24.93
2018-12-20T19:35:35.027Z,24.67
2018-12-20T19:38:05.096Z,24.87
2018-12-20T19:40:45.813Z,25.17
2018-12-20T19:43:25.771Z,25.82
2018-12-20T19:46:31.473Z,26.13
2018-12-20T19:49:01.724Z,25.07
2018-12-20T19:51:35.914Z,25.00
2018-12-20T19:54:06.323Z,28.30
2018-12-20T19:56:37.063Z,29.70
2018-12-20T19:59:10.342Z,28.83
2018-12-20T20:01:45.303Z,29.70
2018-12-20T20:04:16.255Z,30.83
2018-12-20T20:06:48.135Z,30.90
2018-12-20T20:09:18.431Z,31.63
2018-12-20T20:11:48.455Z,31.07
2018-12-20T20:14:19.281Z,32.10
2018-12-20T20:16:53.353Z,30.57
2018-12-20T20:19:27.569Z,26.50
2018-12-20T20:21:57.824Z,23.90
2018-12-20T20:24:29.070Z,25.67
2018-12-20T20:27:06.100Z,24.20
2018-12-20T20:29:36.484Z,23.67
2018-12-20T20:32:07.814Z,24.03
2018-12-20T20:34:41.173Z,24.20
2018-12-20T20:37:11.314Z,25.00
2018-12-20T20:39:43.650Z,25.63
2018-12-20T20:42:14.995Z,25.13
2018-12-20T20:44:49.270Z,24.83
2018-12-20T20:47:27.070Z,25.87
2018-12-20T20:50:01.006Z,25.00
2018-12-20T20:52:31.636Z,23.13
2018-12-20T20:55:02.450Z,24.37
2018-12-20T20:57:33.680Z,23.30
2018-12-20T21:00:04.003Z,23.70
2018-12-20T21:02:37.979Z,23.97
2018-12-20T21:05:13.014Z,24.73
2018-12-20T21:07:43.197Z,23.53
2018-12-20T21:10:13.734Z,23.97
2018-12-20T21:12:44.202Z,23.03
2018-12-20T21:15:15.862Z,23.80
2018-12-20T21:17:45.929Z,24.40
2018-12-20T21:20:16.008Z,24.13
2018-12-20T21:22:46.024Z,24.10
2018-12-20T21:25:16.176Z,23.53
2018-12-20T21:27:46.491Z,24.37
2018-12-20T21:30:16.835Z,23.13
2018-12-20T21:32:47.276Z,22.80
2018-12-20T21:35:17.199Z,23.03
2018-12-20T21:37:47.443Z,23.17
2018-12-20T21:40:18.733Z,23.50
2018-12-20T21:42:48.911Z,23.23
2018-12-20T21:45:18.844Z,23.90
2018-12-20T21:47:51.910Z,21.67
2018-12-20T21:50:22.143Z,24.23
2018-12-20T21:52:52.325Z,23.53
2018-12-20T21:55:22.737Z,23.27
2018-12-20T21:57:52.709Z,22.70
2018-12-20T22:00:22.875Z,22.30
2018-12-20T22:02:54.490Z,23.97
2018-12-20T22:05:24.463Z,22.67
2018-12-20T22:07:54.443Z,22.90
2018-12-20T22:10:24.375Z,21.93
2018-12-20T22:12:54.426Z,22.67
2018-12-20T22:15:24.626Z,23.03
2018-12-20T22:17:55.529Z,23.57
2018-12-20T22:20:25.500Z,23.23
2018-12-20T22:22:55.849Z,22.80
2018-12-20T22:25:25.934Z,22.33
2018-12-20T22:27:56.192Z,23.07
2018-12-20T22:30:27.385Z,23.03
2018-12-20T22:33:05.316Z,29.67
2018-12-20T22:35:40.289Z,29.20
2018-12-20T22:38:12.292Z,27.30
2018-12-20T22:41:59.781Z,28.10
2018-12-20T22:44:29.825Z,28.03
2018-12-20T22:46:59.804Z,26.97
2018-12-20T22:49:29.790Z,27.83
2018-12-20T22:51:59.892Z,28.30
2018-12-20T22:54:32.919Z,26.70
2018-12-20T22:57:03.090Z,26.30
2018-12-20T22:59:32.982Z,26.27
2018-12-20T23:02:02.986Z,27.03
2018-12-20T23:04:33.060Z,27.23
2018-12-20T23:07:03.060Z,26.07
2018-12-20T23:09:33.049Z,25.67
2018-12-20T23:12:03.049Z,25.97
2018-12-20T23:14:33.138Z,25.77
2018-12-20T23:17:03.197Z,26.70
2018-12-20T23:19:33.142Z,24.93
2018-12-20T23:22:03.101Z,25.43
2018-12-20T23:24:33.107Z,24.73
2018-12-20T23:27:03.059Z,24.17
2018-12-20T23:29:33.143Z,25.60
2018-12-20T23:32:03.082Z,24.73
2018-12-20T23:34:33.088Z,23.97
2018-12-20T23:37:03.020Z,23.57
2018-12-20T23:39:36.068Z,22.70
2018-12-20T23:42:05.958Z,23.43
2018-12-20T23:44:35.980Z,23.97
2018-12-20T23:47:05.890Z,24.10
2018-12-20T23:49:35.969Z,23.40
2018-12-20T23:52:05.975Z,23.20
2018-12-20T23:54:36.257Z,23.20
2018-12-20T23:57:06.160Z,23.20
2018-12-20T23:59:36.179Z,23.57
